| time (UTC) | temp F | wind direction | speed MPH | gust MPH | rain 1hr in | rain 24hr in | rain mn in | humidity % | barometer mb |
| 20260503021055 | 57 | 0 | 0.0 | 0.0 | 0.00 | 0.23 | 0.00 | 74 | 1014.9 |
| 20260503020054 | 57 | 0 | 0.0 | 0.0 | 0.00 | 0.23 | 0.00 | 76 | 1015.0 |
| 20260503014056 | 57 | 0 | 0.0 | 0.0 | 0.00 | 0.23 | 0.00 | 76 | 1015.1 |
| 20260503013057 | 57 | 0 | 0.0 | 0.0 | 0.00 | 0.23 | 0.00 | 76 | 1015.2 |
| 20260503012055 | 57 | 0 | 0.0 | 0.0 | 0.00 | 0.23 | 0.00 | 76 | 1015.3 |
| 20260503011057 | 57 | 0 | 0.0 | 0.0 | 0.00 | 0.23 | 0.00 | 78 | 1015.5 |
| 20260503010058 | 57 | 0 | 0.0 | 0.0 | 0.00 | 0.23 | 0.00 | 77 | 1015.6 |
| 20260503005056 | 57 | 0 | 0.0 | 0.0 | 0.00 | 0.23 | 0.00 | 78 | 1015.7 |
| 20260503002057 | 57 | 0 | 0.0 | 0.0 | 0.00 | 0.23 | 0.00 | 77 | 1015.8 |
| 20260503001056 | 57 | 0 | 0.0 | 0.0 | 0.00 | 0.23 | 0.00 | 77 | 1016.0 |
| 20260503000100 | 57 | 0 | 0.0 | 0.0 | 0.00 | 0.23 | 0.00 | 77 | 1016.1 |
| 20260502235101 | 57 | 0 | 0.0 | 0.0 | 0.00 | 0.23 | 0.00 | 78 | 1016.1 |
| 20260502234101 | 57 | 0 | 0.0 | 0.0 | 0.00 | 0.23 | 0.00 | 78 | 1016.1 |
| 20260502233100 | 57 | 0 | 0.0 | 0.0 | 0.00 | 0.23 | 0.00 | 80 | 1016.2 |
| 20260502232059 | 57 | 0 | 0.0 | 0.0 | 0.00 | 0.23 | 0.00 | 80 | 1016.3 |
| 20260502231059 | 57 | 0 | 0.0 | 0.0 | 0.00 | 0.23 | 0.00 | 81 | 1016.4 |
| 20260502230058 | 57 | 0 | 0.0 | 0.0 | 0.00 | 0.23 | 0.00 | 82 | 1016.4 |
| 20260502225058 | 57 | 0 | 0.0 | 0.0 | 0.00 | 0.23 | 0.00 | 82 | 1016.5 |
| 20260502224102 | 58 | 0 | 0.0 | 0.0 | 0.00 | 0.23 | 0.00 | 81 | 1016.4 |
| 20260502222103 | 58 | 0 | 0.0 | 0.0 | 0.00 | 0.23 | 0.00 | 81 | 1016.5 |
| 20260502220058 | 57 | 0 | 0.0 | 0.0 | 0.00 | 0.23 | 0.00 | 85 | 1016.7 |
| 20260502215059 | 56 | 0 | 0.0 | 0.0 | 0.00 | 0.23 | 0.23 | 86 | 1016.8 |
| 20260502213103 | 57 | 0 | 0.0 | 0.0 | 0.00 | 0.23 | 0.23 | 84 | 1016.8 |
| 20260502212058 | 57 | 0 | 0.0 | 0.0 | 0.00 | 0.23 | 0.23 | 85 | 1016.8 |
| 20260502205055 | 57 | 0 | 0.0 | 0.0 | 0.00 | 0.23 | 0.23 | 85 | 1016.8 |
| 20260502204102 | 56 | 0 | 0.0 | 0.0 | 0.00 | 0.23 | 0.23 | 86 | 1017.0 |
| 20260502203105 | 57 | 0 | 0.0 | 0.0 | 0.00 | 0.23 | 0.23 | 85 | 1016.9 |
| 20260502202107 | 57 | 0 | 0.0 | 0.0 | 0.00 | 0.23 | 0.23 | 85 | 1016.9 |
| 20260502201102 | 57 | 0 | 0.0 | 0.0 | 0.00 | 0.23 | 0.23 | 86 | 1017.0 |
| 20260502200106 | 56 | 0 | 0.0 | 0.0 | 0.00 | 0.23 | 0.23 | 88 | 1017.1 |
| 20260502195059 | 56 | 0 | 0.0 | 0.0 | 0.00 | 0.23 | 0.23 | 89 | 1017.2 |
| 20260502194055 | 57 | 0 | 0.0 | 0.0 | 0.00 | 0.23 | 0.23 | 89 | 1017.1 |
| 20260502193057 | 57 | 0 | 0.0 | 0.0 | 0.00 | 0.23 | 0.23 | 93 | 1017.2 |
| 20260502191103 | 58 | 0 | 0.0 | 0.0 | 0.00 | 0.23 | 0.23 | 92 | 1017.1 |
| 20260502190104 | 58 | 0 | 0.0 | 0.0 | 0.00 | 0.23 | 0.23 | 89 | 1017.0 |
| 20260502184057 | 59 | 0 | 0.0 | 0.0 | 0.01 | 0.23 | 0.23 | 87 | 1017.0 |
| 20260502183058 | 59 | 0 | 0.0 | 0.0 | 0.01 | 0.23 | 0.23 | 86 | 1017.2 |
| 20260502182057 | 59 | 0 | 0.0 | 0.0 | 0.01 | 0.23 | 0.23 | 93 | 1017.4 |
| 20260502163059 | 68 | 0 | 0.0 | 0.0 | 0.10 | 0.13 | 0.13 | 68 | 1017.0 |
| 20260502162055 | 70 | 0 | 0.0 | 0.0 | 0.00 | 0.03 | 0.03 | 58 | 1015.9 |
| 20260502152101 | 71 | 0 | 0.0 | 0.0 | 0.00 | 0.03 | 0.03 | 56 | 1016.7 |
| 20260502151059 | 74 | 0 | 0.0 | 0.0 | 0.00 | 0.03 | 0.03 | 50 | 1016.6 |
| 20260502123054 | 69 | 0 | 0.0 | 0.0 | 0.03 | 0.03 | 0.03 | 70 | 1019.3 |
| 20260502121051 | 67 | 0 | 0.0 | 0.0 | 0.03 | 0.03 | 0.03 | 76 | 1019.9 |
| 20260502114053 | 71 | 0 | 0.0 | 0.0 | 0.00 | 0.00 | 0.00 | 54 | 1019.4 |
| 20260502113053 | 71 | 0 | 0.0 | 0.0 | 0.00 | 0.00 | 0.00 | 55 | 1019.6 |
| 20260502112053 | 71 | 0 | 0.0 | 0.0 | 0.00 | 0.00 | 0.00 | 53 | 1019.6 |
| 20260502111058 | 72 | 0 | 0.0 | 0.0 | 0.00 | 0.00 | 0.00 | 51 | 1019.5 |
| 20260502110052 | 72 | 0 | 0.0 | 0.0 | 0.00 | 0.00 | 0.00 | 51 | 1019.5 |
| 20260502104056 | 72 | 0 | 0.0 | 0.0 | 0.00 | 0.00 | 0.00 | 52 | 1019.8 |
| 20260502103056 | 71 | 0 | 0.0 | 0.0 | 0.00 | 0.00 | 0.00 | 52 | 1020.0 |
| 20260502101055 | 70 | 0 | 0.0 | 0.0 | 0.00 | 0.00 | 0.00 | 53 | 1020.3 |
| 20260502071054 | 60 | 0 | 0.0 | 0.0 | 0.00 | 0.00 | 0.00 | 60 | 1021.9 |
| 20260502070055 | 60 | 0 | 0.0 | 0.0 | 0.00 | 0.00 | 0.00 | 59 | 1021.7 |
| 20260502065056 | 60 | 0 | 0.0 | 0.0 | 0.00 | 0.00 | 0.00 | 57 | 1021.9 |
| 20260502064051 | 60 | 0 | 0.0 | 0.0 | 0.00 | 0.00 | 0.00 | 57 | 1022.1 |
| 20260502063054 | 60 | 0 | 0.0 | 0.0 | 0.00 | 0.00 | 0.00 | 57 | 1022.3 |
| 20260502062053 | 59 | 0 | 0.0 | 0.0 | 0.00 | 0.00 | 0.00 | 57 | 1022.4 |
| 20260502061053 | 59 | 0 | 0.0 | 0.0 | 0.00 | 0.00 | 0.00 | 56 | 1022.5 |
| 20260502060057 | 59 | 0 | 0.0 | 0.0 | 0.00 | 0.00 | 0.00 | 54 | 1022.5 |
| 20260502052052 | 58 | 0 | 0.0 | 0.0 | 0.00 | 0.00 | 0.00 | 47 | 1022.5 |
| 20260502051051 | 58 | 0 | 0.0 | 0.0 | 0.00 | 0.00 | 0.00 | 47 | 1022.5 |
| 20260502050053 | 57 | 0 | 0.0 | 0.0 | 0.00 | 0.00 | 0.00 | 47 | 1022.6 |
| 20260502044051 | 56 | 0 | 0.0 | 0.0 | 0.00 | 0.00 | 0.00 | 48 | 1022.5 |
| 20260502043057 | 56 | 0 | 0.0 | 0.0 | 0.00 | 0.00 | 0.00 | 46 | 1022.4 |
| 20260502042055 | 56 | 0 | 0.0 | 0.0 | 0.00 | 0.00 | 0.00 | 46 | 1022.4 |
| 20260502040055 | 57 | 0 | 0.0 | 0.0 | 0.00 | 0.00 | 0.00 | 44 | 1022.6 |
| 20260502035056 | 57 | 0 | 0.0 | 0.0 | 0.00 | 0.00 | 0.00 | 43 | 1022.8 |
| 20260502034052 | 58 | 0 | 0.0 | 0.0 | 0.00 | 0.00 | 0.00 | 42 | 1022.8 |
| 20260502032056 | 58 | 0 | 0.0 | 0.0 | 0.00 | 0.00 | 0.00 | 42 | 1022.4 |
| 20260502031054 | 58 | 0 | 0.0 | 0.0 | 0.00 | 0.00 | 0.00 | 41 | 1022.5 |
| 20260502030056 | 58 | 0 | 0.0 | 0.0 | 0.00 | 0.00 | 0.00 | 41 | 1022.6 |
| 20260502025054 | 57 | 0 | 0.0 | 0.0 | 0.00 | 0.00 | 0.00 | 42 | 1022.7 |
| 20260502023054 | 57 | 0 | 0.0 | 0.0 | 0.00 | 0.00 | 0.00 | 42 | 1022.8 |